Terminal Aerodrome Forecast
Issued by NWS Rapid City, SD

Home | Current Version | Previous Version | Graphics & Text | Print | Product List | Glossary On
Versions: 1 2 3 4 5 6 7 8 9 10 11 12 13 14 15 16 17 18 19 20 21 22 23 24 25 26 27 28 29 30 31 32
000
FTUS43 KUNR 291500 AAA
TAFRAP
TAF AMD
KRAP 291504Z 2915/3012 07007KT 3SM -SHRA BR SCT003 OVC020
     FM291800 08010KT 6SM -SHRA BR OVC008
     FM300200 03011KT 3SM -RA BR OVC005=

USA.gov is the U.S. government's official web portal to all federal, state and local government web resources and services.